»·PEaware :: N353DE KLGB-KSAN

N353DE :: KLGB-KSAN

FLIGHT INFORMATION

Flight Status: Arrived
Operator: Privately registered:
United States
More flights under this callsign
Pilot: Danil K. (16650)
Aircraft: CESSNA 172 SKYHAWK
(C172)
More flights by this aircraft type
Origin: KLGB Long Beach
United States
Destination: KSAN San Diego Intl-Lindbergh
United States
More flights between these airports :: More routes between these airports
Route: +SLI V64 V363 DANAH V23 MZB
File this flight plan on PilotEdge
Remarks:
Altitude:
(Current/Filed)
3,000ft
Speed:
(Current/Filed)
220kts
Departed: 13-Sep-17 07:33 AM
Arrived: 13-Sep-17 08:54 AM
Distance/Time
Traveled:
81nm/1:21
Distance/Time
To Go:
Arrived

Flight Plot

Page will automatically refresh every two minutes.


Map Options




Map Legend


Flown Route
Filed Route
Departure Airport
Arrival Airport
Navaid (VOR, NDB)
Fix

Horizontal Profiles

Position Reports

Time Latitude Longitude Heading Altitude Ground
Speed
13-Sep-17 07:15 33.816535 -118.145588 113 63ft 0kts
13-Sep-17 07:16 33.816535 -118.145588 113 63ft 0kts
13-Sep-17 07:17 33.816535 -118.145588 113 63ft 0kts
13-Sep-17 07:18 33.816535 -118.145588 113 63ft 0kts
13-Sep-17 07:19 33.816535 -118.145588 113 63ft 0kts
13-Sep-17 07:20 33.816535 -118.145588 113 63ft 0kts
13-Sep-17 07:21 33.816535 -118.145588 113 63ft 0kts
13-Sep-17 07:22 33.816535 -118.145588 113 63ft 0kts
13-Sep-17 07:23 33.816535 -118.145588 113 63ft 0kts
13-Sep-17 07:24 33.816535 -118.145588 113 63ft 0kts
13-Sep-17 07:25 33.816535 -118.145588 113 63ft 0kts
13-Sep-17 07:26 33.816535 -118.145588 113 63ft 0kts
13-Sep-17 07:27 33.816535 -118.145588 113 63ft 0kts
13-Sep-17 07:28 33.816535 -118.145588 285 63ft 0kts
13-Sep-17 07:29 33.816535 -118.145588 285 63ft 0kts
13-Sep-17 07:30 33.816536 -118.145593 285 63ft 0kts
13-Sep-17 07:31 33.816538 -118.145602 285 63ft 0kts
13-Sep-17 07:32 33.816576 -118.145717 294 63ft 4kts
13-Sep-17 07:33 33.814823 -118.143634 132 63ft 12kts
13-Sep-17 07:34 33.814427 -118.143613 188 63ft 0kts
13-Sep-17 07:35 33.814420 -118.143614 188 63ft 0kts
13-Sep-17 07:36 33.814413 -118.143616 188 63ft 0kts
13-Sep-17 07:37 33.813813 -118.148702 268 97ft 71kts
13-Sep-17 07:38 33.813831 -118.173503 290 808ft 80kts
13-Sep-17 07:39 33.833581 -118.169643 23 1251ft 80kts
13-Sep-17 07:40 33.853601 -118.159669 23 1635ft 82kts
13-Sep-17 07:41 33.873031 -118.150836 100 2005ft 81kts
13-Sep-17 07:42 33.854052 -118.157065 211 2467ft 81kts
13-Sep-17 07:43 33.837331 -118.172006 211 3393ft 77kts
13-Sep-17 07:44 33.820043 -118.187843 211 4307ft 76kts
13-Sep-17 07:45 33.800998 -118.200612 151 4972ft 82kts
13-Sep-17 07:46 33.779996 -118.180026 142 5037ft 106kts
13-Sep-17 07:47 33.757320 -118.156193 140 4971ft 104kts
13-Sep-17 07:48 33.734604 -118.136783 136 4982ft 101kts
13-Sep-17 07:49 33.733188 -118.106431 93 4983ft 94kts
13-Sep-17 07:50 33.729023 -118.075270 101 4982ft 94kts
13-Sep-17 07:51 33.724297 -118.044237 100 4980ft 94kts
13-Sep-17 07:52 33.720360 -118.018488 99 4975ft 95kts
13-Sep-17 07:53 33.715619 -117.987530 99 4983ft 93kts
13-Sep-17 07:54 33.710776 -117.955949 100 4983ft 97kts
13-Sep-17 07:55 33.704961 -117.918122 103 4980ft 99kts
13-Sep-17 07:56 33.699796 -117.884658 102 4971ft 109kts
13-Sep-17 07:57 33.695019 -117.853661 102 5009ft 113kts
13-Sep-17 07:58 33.683548 -117.819443 158 4995ft 110kts
13-Sep-17 07:59 33.656467 -117.799476 146 4991ft 118kts
13-Sep-17 08:00 33.625979 -117.771611 145 4977ft 113kts
13-Sep-17 08:01 33.605838 -117.753029 145 5011ft 108kts
13-Sep-17 08:02 33.585075 -117.733899 145 4969ft 109kts
13-Sep-17 08:03 33.557243 -117.708247 144 4981ft 115kts
13-Sep-17 08:04 33.531461 -117.684486 144 4979ft 117kts
13-Sep-17 08:05 33.505704 -117.660771 144 4980ft 117kts
13-Sep-17 08:06 33.480383 -117.637488 144 4982ft 115kts
13-Sep-17 08:07 33.454715 -117.613880 145 5010ft 112kts
13-Sep-17 08:08 33.429307 -117.590545 145 4983ft 115kts
13-Sep-17 08:09 33.404069 -117.567378 146 4983ft 113kts
13-Sep-17 08:10 33.380047 -117.545330 147 4995ft 105kts
13-Sep-17 08:11 33.356719 -117.523966 147 4988ft 106kts
13-Sep-17 08:12 33.334270 -117.503384 149 5000ft 97kts
13-Sep-17 08:13 33.312795 -117.483736 149 4998ft 96kts
13-Sep-17 08:14 33.291369 -117.464140 149 4997ft 97kts
13-Sep-17 08:15 33.269842 -117.444456 148 4997ft 97kts
13-Sep-17 08:16 33.248287 -117.424749 148 4997ft 97kts
13-Sep-17 08:17 33.234871 -117.397750 135 4985ft 98kts
13-Sep-17 08:18 33.211360 -117.380792 150 4976ft 101kts
13-Sep-17 08:19 33.185911 -117.366335 150 4983ft 101kts
13-Sep-17 08:20 33.160186 -117.351981 150 4981ft 102kts
13-Sep-17 08:21 33.134304 -117.337753 150 4978ft 102kts
13-Sep-17 08:22 33.106034 -117.328186 160 4981ft 108kts
13-Sep-17 08:23 33.076672 -117.318979 159 4977ft 109kts
13-Sep-17 08:24 33.047479 -117.309690 160 4980ft 108kts
13-Sep-17 08:25 33.018868 -117.300586 161 4985ft 105kts
13-Sep-17 08:26 32.990618 -117.291599 161 4986ft 105kts
13-Sep-17 08:27 32.962077 -117.282507 168 5007ft 106kts
13-Sep-17 08:28 32.932906 -117.273267 168 5001ft 108kts
13-Sep-17 08:29 32.903786 -117.264027 167 5002ft 108kts
13-Sep-17 08:30 32.874718 -117.254805 167 5001ft 108kts
13-Sep-17 08:31 32.845848 -117.245642 165 4993ft 106kts
13-Sep-17 08:32 32.820321 -117.231040 108 4997ft 112kts
13-Sep-17 08:33 32.817416 -117.193534 100 4995ft 111kts
13-Sep-17 08:34 32.815830 -117.156235 100 4998ft 118kts
13-Sep-17 08:35 32.814069 -117.115779 100 5002ft 124kts
13-Sep-17 08:36 32.812149 -117.074438 100 5000ft 126kts
13-Sep-17 08:37 32.810219 -117.032895 100 5002ft 126kts
13-Sep-17 08:38 32.808274 -116.991181 100 5002ft 126kts
13-Sep-17 08:39 32.803260 -116.950672 116 5003ft 121kts
13-Sep-17 08:40 32.792194 -116.913048 116 4996ft 120kts
13-Sep-17 08:41 32.781227 -116.875489 116 5001ft 121kts
13-Sep-17 08:42 32.769452 -116.838128 116 4993ft 116kts
13-Sep-17 08:43 32.750611 -116.813767 193 4994ft 114kts
13-Sep-17 08:44 32.721041 -116.830629 201 4994ft 115kts
13-Sep-17 08:45 32.692267 -116.847873 210 4994ft 119kts
13-Sep-17 08:46 32.680677 -116.887006 252 4482ft 124kts
13-Sep-17 08:47 32.667646 -116.921879 249 4000ft 99kts
13-Sep-17 08:48 32.669453 -116.949337 298 3970ft 75kts
13-Sep-17 08:49 32.673620 -116.972673 296 4047ft 93kts
13-Sep-17 08:50 32.687269 -117.002476 284 3992ft 93kts
13-Sep-17 08:51 32.694160 -117.029441 290 3876ft 92kts
13-Sep-17 08:52 32.700990 -117.056341 284 3627ft 85kts
13-Sep-17 08:53 32.706993 -117.082652 286 3283ft 76kts
13-Sep-17 08:54 32.713348 -117.107589 285 2983ft 84kts
13-Sep-17 08:55 32.719465 -117.128939 295 2492ft 67kts
13-Sep-17 08:56 32.724778 -117.153335 285 1628ft 85kts
13-Sep-17 08:57 32.731206 -117.180045 286 62ft 67kts
13-Sep-17 08:58 32.733847 -117.188121 8 18ft 0kts
13-Sep-17 08:59 32.733848 -117.188120 8 18ft 0kts
13-Sep-17 09:00 32.734060 -117.187033 108 18ft 11kts
13-Sep-17 09:01 32.732214 -117.179544 105 18ft 13kts
13-Sep-17 09:02 32.732009 -117.178580 97 18ft 5kts

Navigation Log

Ident Type
1. KLGB Airport
2. SLI Navaid
3. DANAH Fix
4. KELPS Fix
5. OCN Navaid
6. HURSI Fix
7. CARIF Fix
8. MZB Navaid
9. KSAN Airport